Taos Pueblo, New Mexico
Current Conditions -  °F | °C
As of 4:15 PM on Thursday 27 Nov 2014 (Local Time) from KSKX Reporting Station
Clear Clear  
Wind Chill: 54°   Ceiling: Unl
Heat Index: 54°   Visibility: 10mi
Dew Point: 23°   Wind: 5mph
Humidity: 30%   Direction: 240°WSW
Pressure: 30.37"   Gusts: NA
Location:  36.4227°N, 105.509°W
Report Text: KSKX 272315Z AUTO 24004KT 10SM CLR 12/M05 A3037 RMK AO1
Loading
Personal Weather Stations






























Interactive Weather Map New forecast layout! Learn more

10-Day Weather Forecast

Advertisements
Track Severe Weather on mobile